Epic Cobrador — 9V9160 — position and weather

sailwx.info

Track history (hours):
 
Tides and Currents Weather Stations Pressure Air Temp Water Temp Dewpoint Dewpoint Depression Visibility Wind Speed Wind Dir Waves Ship Positions

Epic Cobrador

Last reported at 2017-Oct-15 01:19 UTC. Time now 2017-Oct-18 15:15 UTC.
Position N 34°59' E 139°32'.

Length 96 m; draft 5.6 m.

Type: Tanker. MMSI: 566047000.

Date/timePositionNaut miles runAvg speedWind from/ knotsBaromVisibWave heightAir tempDewpointWater temp
2017-Oct-15 01:19N 34°59' E 139°32'412.2
2017-Oct-15 00:58N 35°02' E 139°36'613.3
2017-Oct-15 00:30N 35°06' E 139°42'713.2
2017-Oct-15 00:00N 35°12' E 139°45'510.8
2017-Oct-14 23:30N 35°17' E 139°45'510.8
2017-Oct-14 23:00N 35°22' E 139°42'510.7
2017-Oct-14 22:31N 35°26' E 139°46'4 8.2
2017-Oct-14 22:00N 35°30' E 139°47'1 0.0
2017-Oct-14 08:22N 35°31' E 139°46'0 0.0
2017-Oct-14 05:16N 35°31' E 139°46'0 0.1
2017-Oct-14 04:49N 35°31' E 139°46'0 0.2
2017-Oct-14 04:28N 35°31' E 139°46'3 5.5
2017-Oct-14 04:00N 35°30' E 139°43'2 3.9
2017-Oct-14 03:30N 35°28' E 139°44'0 0.4
2017-Oct-14 02:58N 35°28' E 139°44'0 0.0
2017-Oct-14 02:28N 35°28' E 139°44'0 0.0
2017-Oct-14 01:58N 35°28' E 139°44'0 0.0
2017-Oct-14 01:28N 35°28' E 139°44'0 0.0
2017-Oct-14 00:58N 35°28' E 139°44'0 0.0
2017-Oct-14 00:28N 35°28' E 139°44'0 0.0
2017-Oct-13 23:58N 35°28' E 139°44'0 0.0
2017-Oct-13 23:28N 35°28' E 139°44'0 0.0
2017-Oct-13 22:58N 35°28' E 139°44'0 0.0
2017-Oct-13 22:28N 35°28' E 139°44'0 0.0
2017-Oct-13 21:58N 35°28' E 139°44'0 0.1
2017-Oct-13 21:28N 35°28' E 139°44'0 0.0
2017-Oct-13 20:58N 35°28' E 139°44'0 0.1
2017-Oct-13 20:28N 35°28' E 139°44'0 0.1
2017-Oct-13 19:58N 35°28' E 139°44'0 0.0
2017-Oct-13 19:28N 35°28' E 139°44'0 0.1
2017-Oct-13 18:58N 35°28' E 139°44'0 0.0
2017-Oct-13 18:28N 35°28' E 139°44'0 0.0
2017-Oct-13 17:58N 35°28' E 139°44'0 0.0
2017-Oct-13 17:28N 35°28' E 139°44'0 0.1
2017-Oct-13 16:58N 35°28' E 139°44'0 0.1
2017-Oct-13 16:28N 35°28' E 139°44'0 0.0
2017-Oct-13 15:58N 35°28' E 139°44'0 0.0
2017-Oct-13 15:28N 35°28' E 139°44'0 0.0
2017-Oct-13 14:58N 35°28' E 139°44'0 0.0
2017-Oct-13 14:28N 35°28' E 139°44'0 0.0
2017-Oct-13 13:58N 35°28' E 139°44'0 0.0
2017-Oct-13 13:28N 35°28' E 139°44'0 0.0
2017-Oct-13 12:58N 35°28' E 139°44'0 0.0
2017-Oct-13 12:31N 35°28' E 139°44'0 0.0
2017-Oct-13 12:00N 35°28' E 139°44'0 0.0
2017-Oct-13 11:30N 35°28' E 139°44'0 0.2
2017-Oct-13 11:00N 35°28' E 139°44'3 5.3
2017-Oct-13 10:30N 35°25' E 139°46'510.4
2017-Oct-13 10:00N 35°20' E 139°45'510.5
2017-Oct-13 09:30N 35°15' E 139°47'510.4
2017-Oct-13 09:00N 35°10' E 139°46'4 8.9
2017-Oct-13 08:30N 35°07' E 139°42'510.9
2017-Oct-13 08:00N 35°03' E 139°38'611.7
2017-Oct-13 07:30N 34°59' E 139°32'612.3
2017-Oct-13 07:00N 34°55' E 139°26'  
2017-Oct-08 01:48N 34°56' E 139°28'511.7
2017-Oct-08 01:21N 34°59' E 139°34'411.6
2017-Oct-08 00:58N 35°02' E 139°37'611.9
2017-Oct-08 00:29N 35°06' E 139°42'612.1
2017-Oct-08 00:00N 35°11' E 139°45'510.7
2017-Oct-07 23:30N 35°17' E 139°45'611.2
2017-Oct-07 23:00N 35°22' E 139°42'510.8
2017-Oct-07 22:30N 35°26' E 139°46'4 7.9
2017-Oct-07 22:00N 35°30' E 139°47'1 0.4
2017-Oct-07 20:41N 35°31' E 139°46'0 0.0
2017-Oct-07 20:11N 35°31' E 139°46'0 0.0
2017-Oct-07 19:56N 35°31' E 139°46'0 0.0
2017-Oct-07 15:44N 35°31' E 139°46'0 0.0
2017-Oct-07 14:41N 35°31' E 139°46'0 0.0
2017-Oct-07 13:23N 35°31' E 139°46'0 0.0
2017-Oct-07 11:53N 35°31' E 139°46'0 0.0
2017-Oct-07 11:17N 35°31' E 139°46'0 0.0
2017-Oct-07 10:53N 35°31' E 139°46'0 0.0
2017-Oct-07 10:23N 35°31' E 139°46'0 0.0
2017-Oct-07 09:53N 35°31' E 139°46'0 0.0
2017-Oct-07 09:29N 35°31' E 139°46'0 0.0
2017-Oct-07 08:59N 35°31' E 139°46'0 0.0
2017-Oct-07 08:29N 35°31' E 139°46'0 0.0
2017-Oct-07 07:59N 35°31' E 139°46'0 0.0
2017-Oct-07 07:23N 35°31' E 139°46'0 0.0
2017-Oct-07 06:53N 35°31' E 139°46'0 0.0
2017-Oct-07 04:32N 35°31' E 139°46'0 0.0
2017-Oct-07 04:30N 35°31' E 139°46'0 0.8
2017-Oct-07 04:00N 35°31' E 139°46'4 7.8
2017-Oct-07 03:30N 35°28' E 139°42'2 3.2
2017-Oct-07 03:00N 35°28' E 139°44'0 0.0
2017-Oct-07 02:30N 35°28' E 139°44'0 0.0
2017-Oct-07 02:00N 35°28' E 139°44'0 0.0
2017-Oct-07 01:30N 35°28' E 139°44'0 0.0
2017-Oct-07 01:00N 35°28' E 139°44'0 0.0
2017-Oct-07 00:30N 35°28' E 139°44'0 0.0
2017-Oct-06 23:57N 35°28' E 139°44'0 0.0
2017-Oct-06 23:30N 35°28' E 139°44'0 0.1
2017-Oct-06 23:00N 35°28' E 139°44'0 0.1
2017-Oct-06 22:30N 35°28' E 139°44'0 0.0
2017-Oct-06 21:57N 35°28' E 139°44'0 0.0
2017-Oct-06 21:30N 35°28' E 139°44'0 0.1
2017-Oct-06 21:00N 35°28' E 139°44'0 0.0
2017-Oct-06 20:30N 35°28' E 139°44'0 0.0
2017-Oct-06 20:00N 35°28' E 139°44'0 0.0
2017-Oct-06 19:30N 35°28' E 139°44'0 0.1
2017-Oct-06 19:00N 35°28' E 139°44'0 0.2
2017-Oct-06 18:27N 35°28' E 139°44'0 0.0
2017-Oct-06 18:00N 35°28' E 139°44'0 0.0
2017-Oct-06 17:30N 35°28' E 139°44'0 0.0
2017-Oct-06 17:00N 35°28' E 139°44'0 0.0
2017-Oct-06 16:30N 35°28' E 139°44'0 0.0
2017-Oct-06 16:00N 35°28' E 139°44'0 0.1
2017-Oct-06 15:30N 35°28' E 139°44'0 0.1
2017-Oct-06 15:00N 35°28' E 139°44'0 0.0
2017-Oct-06 14:30N 35°28' E 139°44'0 0.0
2017-Oct-06 14:00N 35°28' E 139°44'0 0.0
2017-Oct-06 13:30N 35°28' E 139°44'0 0.1
2017-Oct-06 13:00N 35°28' E 139°44'0 0.0
2017-Oct-06 12:30N 35°28' E 139°44'2 4.5
2017-Oct-06 12:00N 35°26' E 139°45'5 9.5
2017-Oct-06 11:30N 35°21' E 139°45'5 9.9
2017-Oct-06 11:00N 35°16' E 139°46'5 9.8
2017-Oct-06 10:30N 35°11' E 139°46'3 6.5
2017-Oct-06 10:00N 35°08' E 139°45'510.7
2017-Oct-06 09:30N 35°04' E 139°41'611.3
2017-Oct-06 09:00N 35°00' E 139°36'611.2
2017-Oct-06 08:30N 34°57' E 139°30'  
Track history (hours):
 
Tides and Currents Weather Stations Pressure Air Temp Water Temp Dewpoint Dewpoint Depression Visibility Wind Speed Wind Dir Waves Ship Positions

Epic Cobrador

Last reported at 2017-Oct-15 01:19 UTC. Time now 2017-Oct-18 15:15 UTC.
Position N 34°59' E 139°32'.

Length 96 m; draft 5.6 m.

Type: Tanker. MMSI: 566047000.

Date/timePositionNaut miles runAvg speedWind from/ knotsBaromVisibWave heightAir tempDewpointWater temp
2017-Oct-15 01:19N 34°59' E 139°32'412.2
2017-Oct-15 00:58N 35°02' E 139°36'613.3
2017-Oct-15 00:30N 35°06' E 139°42'713.2
2017-Oct-15 00:00N 35°12' E 139°45'510.8
2017-Oct-14 23:30N 35°17' E 139°45'510.8
2017-Oct-14 23:00N 35°22' E 139°42'510.7
2017-Oct-14 22:31N 35°26' E 139°46'4 8.2
2017-Oct-14 22:00N 35°30' E 139°47'1 0.0
2017-Oct-14 08:22N 35°31' E 139°46'0 0.0
2017-Oct-14 05:16N 35°31' E 139°46'0 0.1
2017-Oct-14 04:49N 35°31' E 139°46'0 0.2
2017-Oct-14 04:28N 35°31' E 139°46'3 5.5
2017-Oct-14 04:00N 35°30' E 139°43'2 3.9
2017-Oct-14 03:30N 35°28' E 139°44'0 0.4
2017-Oct-14 02:58N 35°28' E 139°44'0 0.0
2017-Oct-14 02:28N 35°28' E 139°44'0 0.0
2017-Oct-14 01:58N 35°28' E 139°44'0 0.0
2017-Oct-14 01:28N 35°28' E 139°44'0 0.0
2017-Oct-14 00:58N 35°28' E 139°44'0 0.0
2017-Oct-14 00:28N 35°28' E 139°44'0 0.0
2017-Oct-13 23:58N 35°28' E 139°44'0 0.0
2017-Oct-13 23:28N 35°28' E 139°44'0 0.0
2017-Oct-13 22:58N 35°28' E 139°44'0 0.0
2017-Oct-13 22:28N 35°28' E 139°44'0 0.0
2017-Oct-13 21:58N 35°28' E 139°44'0 0.1
2017-Oct-13 21:28N 35°28' E 139°44'0 0.0
2017-Oct-13 20:58N 35°28' E 139°44'0 0.1
2017-Oct-13 20:28N 35°28' E 139°44'0 0.1
2017-Oct-13 19:58N 35°28' E 139°44'0 0.0
2017-Oct-13 19:28N 35°28' E 139°44'0 0.1
2017-Oct-13 18:58N 35°28' E 139°44'0 0.0
2017-Oct-13 18:28N 35°28' E 139°44'0 0.0
2017-Oct-13 17:58N 35°28' E 139°44'0 0.0
2017-Oct-13 17:28N 35°28' E 139°44'0 0.1
2017-Oct-13 16:58N 35°28' E 139°44'0 0.1
2017-Oct-13 16:28N 35°28' E 139°44'0 0.0
2017-Oct-13 15:58N 35°28' E 139°44'0 0.0
2017-Oct-13 15:28N 35°28' E 139°44'0 0.0
2017-Oct-13 14:58N 35°28' E 139°44'0 0.0
2017-Oct-13 14:28N 35°28' E 139°44'0 0.0
2017-Oct-13 13:58N 35°28' E 139°44'0 0.0
2017-Oct-13 13:28N 35°28' E 139°44'0 0.0
2017-Oct-13 12:58N 35°28' E 139°44'0 0.0
2017-Oct-13 12:31N 35°28' E 139°44'0 0.0
2017-Oct-13 12:00N 35°28' E 139°44'0 0.0
2017-Oct-13 11:30N 35°28' E 139°44'0 0.2
2017-Oct-13 11:00N 35°28' E 139°44'3 5.3
2017-Oct-13 10:30N 35°25' E 139°46'510.4
2017-Oct-13 10:00N 35°20' E 139°45'510.5
2017-Oct-13 09:30N 35°15' E 139°47'510.4
2017-Oct-13 09:00N 35°10' E 139°46'4 8.9
2017-Oct-13 08:30N 35°07' E 139°42'510.9
2017-Oct-13 08:00N 35°03' E 139°38'611.7
2017-Oct-13 07:30N 34°59' E 139°32'612.3
2017-Oct-13 07:00N 34°55' E 139°26'  
2017-Oct-08 01:48N 34°56' E 139°28'511.7
2017-Oct-08 01:21N 34°59' E 139°34'411.6
2017-Oct-08 00:58N 35°02' E 139°37'611.9
2017-Oct-08 00:29N 35°06' E 139°42'612.1
2017-Oct-08 00:00N 35°11' E 139°45'510.7
2017-Oct-07 23:30N 35°17' E 139°45'611.2
2017-Oct-07 23:00N 35°22' E 139°42'510.8
2017-Oct-07 22:30N 35°26' E 139°46'4 7.9
2017-Oct-07 22:00N 35°30' E 139°47'1 0.4
2017-Oct-07 20:41N 35°31' E 139°46'0 0.0
2017-Oct-07 20:11N 35°31' E 139°46'0 0.0
2017-Oct-07 19:56N 35°31' E 139°46'0 0.0
2017-Oct-07 15:44N 35°31' E 139°46'0 0.0
2017-Oct-07 14:41N 35°31' E 139°46'0 0.0
2017-Oct-07 13:23N 35°31' E 139°46'0 0.0
2017-Oct-07 11:53N 35°31' E 139°46'0 0.0
2017-Oct-07 11:17N 35°31' E 139°46'0 0.0
2017-Oct-07 10:53N 35°31' E 139°46'0 0.0
2017-Oct-07 10:23N 35°31' E 139°46'0 0.0
2017-Oct-07 09:53N 35°31' E 139°46'0 0.0
2017-Oct-07 09:29N 35°31' E 139°46'0 0.0
2017-Oct-07 08:59N 35°31' E 139°46'0 0.0
2017-Oct-07 08:29N 35°31' E 139°46'0 0.0
2017-Oct-07 07:59N 35°31' E 139°46'0 0.0
2017-Oct-07 07:23N 35°31' E 139°46'0 0.0
2017-Oct-07 06:53N 35°31' E 139°46'0 0.0
2017-Oct-07 04:32N 35°31' E 139°46'0 0.0
2017-Oct-07 04:30N 35°31' E 139°46'0 0.8
2017-Oct-07 04:00N 35°31' E 139°46'4 7.8
2017-Oct-07 03:30N 35°28' E 139°42'2 3.2
2017-Oct-07 03:00N 35°28' E 139°44'0 0.0
2017-Oct-07 02:30N 35°28' E 139°44'0 0.0
2017-Oct-07 02:00N 35°28' E 139°44'0 0.0
2017-Oct-07 01:30N 35°28' E 139°44'0 0.0
2017-Oct-07 01:00N 35°28' E 139°44'0 0.0
2017-Oct-07 00:30N 35°28' E 139°44'0 0.0
2017-Oct-06 23:57N 35°28' E 139°44'0 0.0
2017-Oct-06 23:30N 35°28' E 139°44'0 0.1
2017-Oct-06 23:00N 35°28' E 139°44'0 0.1
2017-Oct-06 22:30N 35°28' E 139°44'0 0.0
2017-Oct-06 21:57N 35°28' E 139°44'0 0.0
2017-Oct-06 21:30N 35°28' E 139°44'0 0.1
2017-Oct-06 21:00N 35°28' E 139°44'0 0.0
2017-Oct-06 20:30N 35°28' E 139°44'0 0.0
2017-Oct-06 20:00N 35°28' E 139°44'0 0.0
2017-Oct-06 19:30N 35°28' E 139°44'0 0.1
2017-Oct-06 19:00N 35°28' E 139°44'0 0.2
2017-Oct-06 18:27N 35°28' E 139°44'0 0.0
2017-Oct-06 18:00N 35°28' E 139°44'0 0.0
2017-Oct-06 17:30N 35°28' E 139°44'0 0.0
2017-Oct-06 17:00N 35°28' E 139°44'0 0.0
2017-Oct-06 16:30N 35°28' E 139°44'0 0.0
2017-Oct-06 16:00N 35°28' E 139°44'0 0.1
2017-Oct-06 15:30N 35°28' E 139°44'0 0.1
2017-Oct-06 15:00N 35°28' E 139°44'0 0.0
2017-Oct-06 14:30N 35°28' E 139°44'0 0.0
2017-Oct-06 14:00N 35°28' E 139°44'0 0.0
2017-Oct-06 13:30N 35°28' E 139°44'0 0.1
2017-Oct-06 13:00N 35°28' E 139°44'0 0.0
2017-Oct-06 12:30N 35°28' E 139°44'2 4.5
2017-Oct-06 12:00N 35°26' E 139°45'5 9.5
2017-Oct-06 11:30N 35°21' E 139°45'5 9.9
2017-Oct-06 11:00N 35°16' E 139°46'5 9.8
2017-Oct-06 10:30N 35°11' E 139°46'3 6.5
2017-Oct-06 10:00N 35°08' E 139°45'510.7
2017-Oct-06 09:30N 35°04' E 139°41'611.3
2017-Oct-06 09:00N 35°00' E 139°36'611.2
2017-Oct-06 08:30N 34°57' E 139°30'  

Dump ship's entire track history